sensor_id;sensor_type;location;lat;lon;timestamp;temperature;humidity
35127;DHT22;21300;52.006;5.798;2023-04-24T00:00:59;13.00;95.80
35127;DHT22;21300;52.006;5.798;2023-04-24T00:03:26;13.00;95.80
35127;DHT22;21300;52.006;5.798;2023-04-24T00:05:56;12.90;95.70
35127;DHT22;21300;52.006;5.798;2023-04-24T00:08:21;13.00;95.80
35127;DHT22;21300;52.006;5.798;2023-04-24T00:10:49;12.90;95.70
35127;DHT22;21300;52.006;5.798;2023-04-24T00:13:14;12.90;95.70
35127;DHT22;21300;52.006;5.798;2023-04-24T00:15:40;12.90;95.80
35127;DHT22;21300;52.006;5.798;2023-04-24T00:18:05;12.90;95.80
35127;DHT22;21300;52.006;5.798;2023-04-24T00:20:31;12.90;95.80
35127;DHT22;21300;52.006;5.798;2023-04-24T00:23:00;12.80;95.80
35127;DHT22;21300;52.006;5.798;2023-04-24T00:25:26;12.90;95.80
35127;DHT22;21300;52.006;5.798;2023-04-24T00:27:52;12.90;95.80
35127;DHT22;21300;52.006;5.798;2023-04-24T00:30:17;12.80;95.80
35127;DHT22;21300;52.006;5.798;2023-04-24T00:32:43;12.80;95.80
35127;DHT22;21300;52.006;5.798;2023-04-24T00:35:08;12.80;95.80
35127;DHT22;21300;52.006;5.798;2023-04-24T00:37:34;12.80;95.80
35127;DHT22;21300;52.006;5.798;2023-04-24T00:40:00;12.70;95.80
35127;DHT22;21300;52.006;5.798;2023-04-24T00:42:25;12.70;95.90
35127;DHT22;21300;52.006;5.798;2023-04-24T00:44:51;12.70;95.80
35127;DHT22;21300;52.006;5.798;2023-04-24T00:47:16;12.70;95.80
35127;DHT22;21300;52.006;5.798;2023-04-24T00:49:44;12.70;95.90
35127;DHT22;21300;52.006;5.798;2023-04-24T00:52:09;12.70;95.90
35127;DHT22;21300;52.006;5.798;2023-04-24T00:54:36;12.70;95.90
35127;DHT22;21300;52.006;5.798;2023-04-24T00:57:03;12.70;95.90
35127;DHT22;21300;52.006;5.798;2023-04-24T00:59:29;12.70;95.90
35127;DHT22;21300;52.006;5.798;2023-04-24T01:01:55;12.60;95.90
35127;DHT22;21300;52.006;5.798;2023-04-24T01:04:21;12.60;95.80
35127;DHT22;21300;52.006;5.798;2023-04-24T01:06:48;12.70;95.90
35127;DHT22;21300;52.006;5.798;2023-04-24T01:09:14;12.60;95.90
35127;DHT22;21300;52.006;5.798;2023-04-24T01:11:41;12.60;95.90
35127;DHT22;21300;52.006;5.798;2023-04-24T01:14:08;12.60;95.90
35127;DHT22;21300;52.006;5.798;2023-04-24T01:16:34;12.60;95.90
35127;DHT22;21300;52.006;5.798;2023-04-24T01:18:59;12.60;95.90
35127;DHT22;21300;52.006;5.798;2023-04-24T01:21:26;12.60;95.90
35127;DHT22;21300;52.006;5.798;2023-04-24T01:23:55;12.50;96.00
35127;DHT22;21300;52.006;5.798;2023-04-24T01:26:22;12.50;96.00
35127;DHT22;21300;52.006;5.798;2023-04-24T01:28:48;12.50;96.00
35127;DHT22;21300;52.006;5.798;2023-04-24T01:31:14;12.50;96.00
35127;DHT22;21300;52.006;5.798;2023-04-24T01:33:42;12.50;96.00
35127;DHT22;21300;52.006;5.798;2023-04-24T01:36:09;12.50;96.00
35127;DHT22;21300;52.006;5.798;2023-04-24T01:38:35;12.50;96.10
35127;DHT22;21300;52.006;5.798;2023-04-24T01:41:01;12.50;96.00
35127;DHT22;21300;52.006;5.798;2023-04-24T01:43:27;12.50;96.00
35127;DHT22;21300;52.006;5.798;2023-04-24T01:45:52;12.40;96.10
35127;DHT22;21300;52.006;5.798;2023-04-24T01:48:18;12.50;96.10
35127;DHT22;21300;52.006;5.798;2023-04-24T01:50:43;12.40;96.10
35127;DHT22;21300;52.006;5.798;2023-04-24T01:53:09;12.40;96.10
35127;DHT22;21300;52.006;5.798;2023-04-24T01:55:35;12.40;96.10
35127;DHT22;21300;52.006;5.798;2023-04-24T01:58:01;12.40;96.10
35127;DHT22;21300;52.006;5.798;2023-04-24T02:00:27;12.40;96.10
35127;DHT22;21300;52.006;5.798;2023-04-24T02:02:53;12.40;96.10
35127;DHT22;21300;52.006;5.798;2023-04-24T02:05:18;12.40;96.10
35127;DHT22;21300;52.006;5.798;2023-04-24T02:07:44;12.30;96.10
35127;DHT22;21300;52.006;5.798;2023-04-24T02:10:10;12.30;96.10
35127;DHT22;21300;52.006;5.798;2023-04-24T02:12:36;12.30;96.10
35127;DHT22;21300;52.006;5.798;2023-04-24T02:15:02;12.30;96.10
35127;DHT22;21300;52.006;5.798;2023-04-24T02:17:28;12.30;96.10
35127;DHT22;21300;52.006;5.798;2023-04-24T02:19:53;12.30;96.10
35127;DHT22;21300;52.006;5.798;2023-04-24T02:22:19;12.30;96.10
35127;DHT22;21300;52.006;5.798;2023-04-24T02:24:45;12.30;96.20
35127;DHT22;21300;52.006;5.798;2023-04-24T02:27:10;12.30;96.20
35127;DHT22;21300;52.006;5.798;2023-04-24T02:29:36;12.30;96.20
35127;DHT22;21300;52.006;5.798;2023-04-24T02:32:02;12.30;96.20
35127;DHT22;21300;52.006;5.798;2023-04-24T02:34:28;12.30;96.20
35127;DHT22;21300;52.006;5.798;2023-04-24T02:36:53;12.30;96.20
35127;DHT22;21300;52.006;5.798;2023-04-24T02:39:19;12.20;96.20
35127;DHT22;21300;52.006;5.798;2023-04-24T02:41:45;12.20;96.20
35127;DHT22;21300;52.006;5.798;2023-04-24T02:44:11;12.20;96.20
35127;DHT22;21300;52.006;5.798;2023-04-24T02:46:36;12.20;96.20
35127;DHT22;21300;52.006;5.798;2023-04-24T02:49:02;12.20;96.20
35127;DHT22;21300;52.006;5.798;2023-04-24T02:51:28;12.20;96.20
35127;DHT22;21300;52.006;5.798;2023-04-24T02:53:54;12.20;96.20
35127;DHT22;21300;52.006;5.798;2023-04-24T02:56:19;12.20;96.20
35127;DHT22;21300;52.006;5.798;2023-04-24T02:58:45;12.20;96.20
35127;DHT22;21300;52.006;5.798;2023-04-24T03:01:11;12.20;96.30
35127;DHT22;21300;52.006;5.798;2023-04-24T03:03:38;12.10;96.30
35127;DHT22;21300;52.006;5.798;2023-04-24T03:06:03;12.10;96.30
35127;DHT22;21300;52.006;5.798;2023-04-24T03:08:34;12.10;96.30
35127;DHT22;21300;52.006;5.798;2023-04-24T03:10:59;12.10;96.40
35127;DHT22;21300;52.006;5.798;2023-04-24T03:13:25;12.10;96.40
35127;DHT22;21300;52.006;5.798;2023-04-24T03:15:50;12.10;96.30
35127;DHT22;21300;52.006;5.798;2023-04-24T03:18:16;12.10;96.40
35127;DHT22;21300;52.006;5.798;2023-04-24T03:20:42;12.10;96.50
35127;DHT22;21300;52.006;5.798;2023-04-24T03:23:10;12.10;96.40
35127;DHT22;21300;52.006;5.798;2023-04-24T03:25:36;12.10;96.40
35127;DHT22;21300;52.006;5.798;2023-04-24T03:28:01;12.10;96.40
35127;DHT22;21300;52.006;5.798;2023-04-24T03:30:27;12.10;96.40
35127;DHT22;21300;52.006;5.798;2023-04-24T03:32:52;12.00;96.70
35127;DHT22;21300;52.006;5.798;2023-04-24T03:35:18;12.00;96.40
35127;DHT22;21300;52.006;5.798;2023-04-24T03:37:43;12.00;96.40
35127;DHT22;21300;52.006;5.798;2023-04-24T03:40:09;12.00;96.40
35127;DHT22;21300;52.006;5.798;2023-04-24T03:42:35;12.00;96.40
35127;DHT22;21300;52.006;5.798;2023-04-24T03:45:00;12.00;96.50
35127;DHT22;21300;52.006;5.798;2023-04-24T03:47:26;12.00;96.50
35127;DHT22;21300;52.006;5.798;2023-04-24T03:49:51;12.00;96.50
35127;DHT22;21300;52.006;5.798;2023-04-24T03:52:17;11.90;96.50
35127;DHT22;21300;52.006;5.798;2023-04-24T03:54:43;12.00;96.50
35127;DHT22;21300;52.006;5.798;2023-04-24T03:57:08;12.00;96.50
35127;DHT22;21300;52.006;5.798;2023-04-24T03:59:34;11.90;96.50
35127;DHT22;21300;52.006;5.798;2023-04-24T04:01:59;11.90;96.50
35127;DHT22;21300;52.006;5.798;2023-04-24T04:04:25;11.90;96.50
35127;DHT22;21300;52.006;5.798;2023-04-24T04:06:50;11.90;96.50
35127;DHT22;21300;52.006;5.798;2023-04-24T04:09:17;11.90;96.50
35127;DHT22;21300;52.006;5.798;2023-04-24T04:11:42;11.90;96.50
35127;DHT22;21300;52.006;5.798;2023-04-24T04:14:08;11.90;96.50
35127;DHT22;21300;52.006;5.798;2023-04-24T04:16:34;11.90;96.60
35127;DHT22;21300;52.006;5.798;2023-04-24T04:19:01;11.90;96.60
35127;DHT22;21300;52.006;5.798;2023-04-24T04:21:28;11.80;96.60
35127;DHT22;21300;52.006;5.798;2023-04-24T04:23:54;11.80;96.60
35127;DHT22;21300;52.006;5.798;2023-04-24T04:26:19;11.80;96.60
35127;DHT22;21300;52.006;5.798;2023-04-24T04:28:46;11.80;96.60
35127;DHT22;21300;52.006;5.798;2023-04-24T04:31:13;11.80;96.60
35127;DHT22;21300;52.006;5.798;2023-04-24T04:33:38;11.80;96.60
35127;DHT22;21300;52.006;5.798;2023-04-24T04:36:05;11.80;96.60
35127;DHT22;21300;52.006;5.798;2023-04-24T04:38:30;11.80;96.60
35127;DHT22;21300;52.006;5.798;2023-04-24T04:40:56;11.80;96.60
35127;DHT22;21300;52.006;5.798;2023-04-24T04:43:23;11.80;96.60
35127;DHT22;21300;52.006;5.798;2023-04-24T04:45:49;11.70;96.60
35127;DHT22;21300;52.006;5.798;2023-04-24T04:48:16;11.80;96.70
35127;DHT22;21300;52.006;5.798;2023-04-24T04:50:43;11.80;96.70
35127;DHT22;21300;52.006;5.798;2023-04-24T04:53:08;11.80;96.70
35127;DHT22;21300;52.006;5.798;2023-04-24T04:55:34;11.80;96.70
35127;DHT22;21300;52.006;5.798;2023-04-24T04:58:00;11.70;96.70
35127;DHT22;21300;52.006;5.798;2023-04-24T05:00:26;11.80;96.70
35127;DHT22;21300;52.006;5.798;2023-04-24T05:02:52;11.70;96.60
35127;DHT22;21300;52.006;5.798;2023-04-24T05:05:18;11.70;96.60
35127;DHT22;21300;52.006;5.798;2023-04-24T05:07:44;11.70;96.70
35127;DHT22;21300;52.006;5.798;2023-04-24T05:10:10;11.70;96.60
35127;DHT22;21300;52.006;5.798;2023-04-24T05:12:36;11.70;96.70
35127;DHT22;21300;52.006;5.798;2023-04-24T05:15:01;11.70;96.60
35127;DHT22;21300;52.006;5.798;2023-04-24T05:17:27;11.70;96.60
35127;DHT22;21300;52.006;5.798;2023-04-24T05:19:53;11.70;96.60
35127;DHT22;21300;52.006;5.798;2023-04-24T05:22:18;11.70;96.60
35127;DHT22;21300;52.006;5.798;2023-04-24T05:24:46;11.70;96.60
35127;DHT22;21300;52.006;5.798;2023-04-24T05:27:12;11.70;96.60
35127;DHT22;21300;52.006;5.798;2023-04-24T05:29:38;11.70;96.60
35127;DHT22;21300;52.006;5.798;2023-04-24T05:32:03;11.70;96.60
35127;DHT22;21300;52.006;5.798;2023-04-24T05:34:29;11.70;96.60
35127;DHT22;21300;52.006;5.798;2023-04-24T05:36:55;11.60;96.60
35127;DHT22;21300;52.006;5.798;2023-04-24T05:39:21;11.60;96.70
35127;DHT22;21300;52.006;5.798;2023-04-24T05:41:46;11.60;96.70
35127;DHT22;21300;52.006;5.798;2023-04-24T05:44:12;11.60;96.70
35127;DHT22;21300;52.006;5.798;2023-04-24T05:46:37;11.60;96.60
35127;DHT22;21300;52.006;5.798;2023-04-24T05:49:03;11.60;96.60
35127;DHT22;21300;52.006;5.798;2023-04-24T05:51:29;11.60;96.60
35127;DHT22;21300;52.006;5.798;2023-04-24T05:53:54;11.60;96.60
35127;DHT22;21300;52.006;5.798;2023-04-24T05:56:20;11.60;96.60
35127;DHT22;21300;52.006;5.798;2023-04-24T05:58:46;11.60;96.60
35127;DHT22;21300;52.006;5.798;2023-04-24T06:01:13;11.60;96.60
35127;DHT22;21300;52.006;5.798;2023-04-24T06:03:40;11.60;96.60
35127;DHT22;21300;52.006;5.798;2023-04-24T06:06:06;11.60;96.60
35127;DHT22;21300;52.006;5.798;2023-04-24T06:08:32;11.60;96.60
35127;DHT22;21300;52.006;5.798;2023-04-24T06:10:58;11.40;96.70
35127;DHT22;21300;52.006;5.798;2023-04-24T06:13:24;11.40;97.00
35127;DHT22;21300;52.006;5.798;2023-04-24T06:15:51;11.40;96.90
35127;DHT22;21300;52.006;5.798;2023-04-24T06:18:16;11.40;96.90
35127;DHT22;21300;52.006;5.798;2023-04-24T06:20:42;11.40;97.20
35127;DHT22;21300;52.006;5.798;2023-04-24T06:23:08;11.50;96.80
35127;DHT22;21300;52.006;5.798;2023-04-24T06:25:33;11.50;96.80
35127;DHT22;21300;52.006;5.798;2023-04-24T06:27:59;11.50;96.80
35127;DHT22;21300;52.006;5.798;2023-04-24T06:30:25;11.50;96.80
35127;DHT22;21300;52.006;5.798;2023-04-24T06:32:50;11.40;97.10
35127;DHT22;21300;52.006;5.798;2023-04-24T06:35:17;11.30;97.20
35127;DHT22;21300;52.006;5.798;2023-04-24T06:37:43;11.30;97.20
35127;DHT22;21300;52.006;5.798;2023-04-24T06:40:09;11.40;97.30
35127;DHT22;21300;52.006;5.798;2023-04-24T06:42:36;11.30;97.40
35127;DHT22;21300;52.006;5.798;2023-04-24T06:45:03;11.30;97.70
35127;DHT22;21300;52.006;5.798;2023-04-24T06:47:29;11.20;97.40
35127;DHT22;21300;52.006;5.798;2023-04-24T06:49:55;11.20;97.70
35127;DHT22;21300;52.006;5.798;2023-04-24T06:52:21;11.20;97.60
35127;DHT22;21300;52.006;5.798;2023-04-24T06:54:46;11.20;97.70
35127;DHT22;21300;52.006;5.798;2023-04-24T06:57:12;11.20;97.70
35127;DHT22;21300;52.006;5.798;2023-04-24T06:59:38;11.20;97.90
35127;DHT22;21300;52.006;5.798;2023-04-24T07:02:03;11.20;97.90
35127;DHT22;21300;52.006;5.798;2023-04-24T07:04:29;11.10;97.90
35127;DHT22;21300;52.006;5.798;2023-04-24T07:06:55;11.20;97.80
35127;DHT22;21300;52.006;5.798;2023-04-24T07:09:40;11.20;97.70
35127;DHT22;21300;52.006;5.798;2023-04-24T07:12:08;11.30;97.60
35127;DHT22;21300;52.006;5.798;2023-04-24T07:14:33;11.30;97.90
35127;DHT22;21300;52.006;5.798;2023-04-24T07:16:59;11.30;97.50
35127;DHT22;21300;52.006;5.798;2023-04-24T07:19:24;11.30;97.40
35127;DHT22;21300;52.006;5.798;2023-04-24T07:21:50;11.30;97.40
35127;DHT22;21300;52.006;5.798;2023-04-24T07:24:16;11.30;97.40
35127;DHT22;21300;52.006;5.798;2023-04-24T07:26:41;11.30;97.50
35127;DHT22;21300;52.006;5.798;2023-04-24T07:29:07;11.20;97.70
35127;DHT22;21300;52.006;5.798;2023-04-24T07:31:33;11.10;98.00
35127;DHT22;21300;52.006;5.798;2023-04-24T07:33:58;11.10;97.90
35127;DHT22;21300;52.006;5.798;2023-04-24T07:36:24;11.10;97.80
35127;DHT22;21300;52.006;5.798;2023-04-24T07:38:51;11.20;97.80
35127;DHT22;21300;52.006;5.798;2023-04-24T07:41:17;11.20;97.70
35127;DHT22;21300;52.006;5.798;2023-04-24T07:43:43;11.20;97.70
35127;DHT22;21300;52.006;5.798;2023-04-24T07:46:09;11.30;97.60
35127;DHT22;21300;52.006;5.798;2023-04-24T07:48:35;11.30;97.60
35127;DHT22;21300;52.006;5.798;2023-04-24T07:51:01;11.30;97.60
35127;DHT22;21300;52.006;5.798;2023-04-24T07:53:27;11.30;97.50
35127;DHT22;21300;52.006;5.798;2023-04-24T07:55:54;11.30;97.40
35127;DHT22;21300;52.006;5.798;2023-04-24T07:58:20;11.30;97.50
35127;DHT22;21300;52.006;5.798;2023-04-24T08:00:46;11.30;97.50
35127;DHT22;21300;52.006;5.798;2023-04-24T08:03:12;11.30;97.40
35127;DHT22;21300;52.006;5.798;2023-04-24T08:05:38;11.30;97.40
35127;DHT22;21300;52.006;5.798;2023-04-24T08:08:07;11.30;97.40
35127;DHT22;21300;52.006;5.798;2023-04-24T08:10:32;11.30;97.40
35127;DHT22;21300;52.006;5.798;2023-04-24T08:12:58;11.30;97.40
35127;DHT22;21300;52.006;5.798;2023-04-24T08:15:23;11.30;97.40
35127;DHT22;21300;52.006;5.798;2023-04-24T08:17:50;11.20;97.40
35127;DHT22;21300;52.006;5.798;2023-04-24T08:20:15;11.20;97.30
35127;DHT22;21300;52.006;5.798;2023-04-24T08:22:42;11.30;97.40
35127;DHT22;21300;52.006;5.798;2023-04-24T08:25:08;11.20;97.40
35127;DHT22;21300;52.006;5.798;2023-04-24T08:27:34;11.20;97.40
35127;DHT22;21300;52.006;5.798;2023-04-24T08:30:02;11.20;97.40
35127;DHT22;21300;52.006;5.798;2023-04-24T08:32:28;11.20;97.30
35127;DHT22;21300;52.006;5.798;2023-04-24T08:34:55;11.20;97.40
35127;DHT22;21300;52.006;5.798;2023-04-24T08:37:22;11.20;97.30
35127;DHT22;21300;52.006;5.798;2023-04-24T08:39:47;11.20;97.40
35127;DHT22;21300;52.006;5.798;2023-04-24T08:42:14;11.20;97.40
35127;DHT22;21300;52.006;5.798;2023-04-24T08:44:41;11.20;97.30
35127;DHT22;21300;52.006;5.798;2023-04-24T08:47:07;11.20;97.30
35127;DHT22;21300;52.006;5.798;2023-04-24T08:49:33;11.20;97.40
35127;DHT22;21300;52.006;5.798;2023-04-24T08:52:02;11.20;97.40
35127;DHT22;21300;52.006;5.798;2023-04-24T08:54:28;11.20;97.40
35127;DHT22;21300;52.006;5.798;2023-04-24T08:56:58;11.20;97.40
35127;DHT22;21300;52.006;5.798;2023-04-24T08:59:24;11.20;97.40
35127;DHT22;21300;52.006;5.798;2023-04-24T09:01:51;11.20;97.40
35127;DHT22;21300;52.006;5.798;2023-04-24T09:04:17;11.20;97.30
35127;DHT22;21300;52.006;5.798;2023-04-24T09:06:45;11.10;97.30
35127;DHT22;21300;52.006;5.798;2023-04-24T09:09:11;11.20;97.30
35127;DHT22;21300;52.006;5.798;2023-04-24T09:11:37;11.10;97.30
35127;DHT22;21300;52.006;5.798;2023-04-24T09:14:03;11.10;97.20
35127;DHT22;21300;52.006;5.798;2023-04-24T09:16:29;11.10;97.30
35127;DHT22;21300;52.006;5.798;2023-04-24T09:18:55;11.10;97.30
35127;DHT22;21300;52.006;5.798;2023-04-24T09:21:22;11.10;97.30
35127;DHT22;21300;52.006;5.798;2023-04-24T09:23:58;11.10;97.20
35127;DHT22;21300;52.006;5.798;2023-04-24T09:26:25;11.10;97.20
35127;DHT22;21300;52.006;5.798;2023-04-24T09:28:51;11.20;97.30
35127;DHT22;21300;52.006;5.798;2023-04-24T09:31:18;11.20;97.30
35127;DHT22;21300;52.006;5.798;2023-04-24T09:33:58;11.10;97.20
35127;DHT22;21300;52.006;5.798;2023-04-24T09:36:38;11.10;97.20
35127;DHT22;21300;52.006;5.798;2023-04-24T09:39:14;11.10;97.20
35127;DHT22;21300;52.006;5.798;2023-04-24T09:42:03;11.10;97.20
35127;DHT22;21300;52.006;5.798;2023-04-24T09:44:29;11.20;97.20
35127;DHT22;21300;52.006;5.798;2023-04-24T09:46:58;11.10;97.20
35127;DHT22;21300;52.006;5.798;2023-04-24T09:49:28;11.10;97.20
35127;DHT22;21300;52.006;5.798;2023-04-24T09:52:05;11.10;97.10
35127;DHT22;21300;52.006;5.798;2023-04-24T09:54:31;11.20;97.20
35127;DHT22;21300;52.006;5.798;2023-04-24T09:56:57;11.10;97.20
35127;DHT22;21300;52.006;5.798;2023-04-24T09:59:22;11.20;97.10
35127;DHT22;21300;52.006;5.798;2023-04-24T10:01:48;11.20;97.10
35127;DHT22;21300;52.006;5.798;2023-04-24T10:04:28;11.10;97.10
35127;DHT22;21300;52.006;5.798;2023-04-24T10:06:55;11.20;97.00
35127;DHT22;21300;52.006;5.798;2023-04-24T10:09:23;11.20;97.10
35127;DHT22;21300;52.006;5.798;2023-04-24T10:11:51;11.20;97.10
35127;DHT22;21300;52.006;5.798;2023-04-24T10:14:23;11.20;97.10
35127;DHT22;21300;52.006;5.798;2023-04-24T10:16:52;11.20;97.10
35127;DHT22;21300;52.006;5.798;2023-04-24T10:19:18;11.20;97.10
35127;DHT22;21300;52.006;5.798;2023-04-24T10:21:48;11.20;97.10
35127;DHT22;21300;52.006;5.798;2023-04-24T10:24:16;11.20;97.00
35127;DHT22;21300;52.006;5.798;2023-04-24T10:26:43;11.20;97.00
35127;DHT22;21300;52.006;5.798;2023-04-24T10:29:10;11.20;97.10
35127;DHT22;21300;52.006;5.798;2023-04-24T10:31:38;11.30;97.00
35127;DHT22;21300;52.006;5.798;2023-04-24T10:34:09;11.30;97.10
35127;DHT22;21300;52.006;5.798;2023-04-24T10:36:36;11.30;96.90
35127;DHT22;21300;52.006;5.798;2023-04-24T10:39:07;11.30;97.00
35127;DHT22;21300;52.006;5.798;2023-04-24T10:41:33;11.30;97.30
35127;DHT22;21300;52.006;5.798;2023-04-24T10:44:12;11.30;96.90
35127;DHT22;21300;52.006;5.798;2023-04-24T10:46:39;11.30;96.80
35127;DHT22;21300;52.006;5.798;2023-04-24T10:49:08;11.30;96.70
35127;DHT22;21300;52.006;5.798;2023-04-24T10:51:48;11.30;96.70
35127;DHT22;21300;52.006;5.798;2023-04-24T10:54:28;11.40;96.70
35127;DHT22;21300;52.006;5.798;2023-04-24T10:59:45;11.40;96.60
35127;DHT22;21300;52.006;5.798;2023-04-24T11:02:10;11.40;96.60
35127;DHT22;21300;52.006;5.798;2023-04-24T11:04:36;11.40;96.60
35127;DHT22;21300;52.006;5.798;2023-04-24T11:07:05;11.40;96.50
35127;DHT22;21300;52.006;5.798;2023-04-24T11:09:31;11.40;96.60
35127;DHT22;21300;52.006;5.798;2023-04-24T11:12:05;11.40;96.50
35127;DHT22;21300;52.006;5.798;2023-04-24T11:17:38;11.40;96.50
35127;DHT22;21300;52.006;5.798;2023-04-24T11:20:09;11.50;96.40
35127;DHT22;21300;52.006;5.798;2023-04-24T11:22:39;11.50;96.30
35127;DHT22;21300;52.006;5.798;2023-04-24T11:25:06;11.50;96.40
35127;DHT22;21300;52.006;5.798;2023-04-24T11:27:47;11.50;96.40
35127;DHT22;21300;52.006;5.798;2023-04-24T11:30:17;11.60;96.40
35127;DHT22;21300;52.006;5.798;2023-04-24T11:32:43;11.60;96.30
35127;DHT22;21300;52.006;5.798;2023-04-24T11:35:17;11.60;96.30
35127;DHT22;21300;52.006;5.798;2023-04-24T11:37:46;11.60;96.30
35127;DHT22;21300;52.006;5.798;2023-04-24T11:40:13;11.60;96.40
35127;DHT22;21300;52.006;5.798;2023-04-24T11:42:43;11.60;96.40
35127;DHT22;21300;52.006;5.798;2023-04-24T11:45:12;11.60;96.30
35127;DHT22;21300;52.006;5.798;2023-04-24T11:47:39;11.60;96.40
35127;DHT22;21300;52.006;5.798;2023-04-24T11:50:07;11.60;96.30
35127;DHT22;21300;52.006;5.798;2023-04-24T11:52:36;11.60;96.30
35127;DHT22;21300;52.006;5.798;2023-04-24T11:55:02;11.60;96.10
35127;DHT22;21300;52.006;5.798;2023-04-24T11:57:29;11.60;96.30
35127;DHT22;21300;52.006;5.798;2023-04-24T12:00:00;11.70;96.20
35127;DHT22;21300;52.006;5.798;2023-04-24T12:02:26;11.70;96.10
35127;DHT22;21300;52.006;5.798;2023-04-24T12:04:53;11.70;96.10
35127;DHT22;21300;52.006;5.798;2023-04-24T12:07:21;11.70;96.20
35127;DHT22;21300;52.006;5.798;2023-04-24T12:09:57;11.70;96.20
35127;DHT22;21300;52.006;5.798;2023-04-24T12:12:26;11.70;96.10
35127;DHT22;21300;52.006;5.798;2023-04-24T12:14:56;11.80;96.10
35127;DHT22;21300;52.006;5.798;2023-04-24T12:17:41;11.80;96.10
35127;DHT22;21300;52.006;5.798;2023-04-24T12:20:08;11.80;96.10
35127;DHT22;21300;52.006;5.798;2023-04-24T12:22:54;11.80;96.10
35127;DHT22;21300;52.006;5.798;2023-04-24T12:25:27;11.80;96.10
35127;DHT22;21300;52.006;5.798;2023-04-24T12:28:16;11.80;96.10
35127;DHT22;21300;52.006;5.798;2023-04-24T12:30:42;11.80;96.10
35127;DHT22;21300;52.006;5.798;2023-04-24T12:33:10;11.80;96.10
35127;DHT22;21300;52.006;5.798;2023-04-24T12:35:54;11.80;96.00
35127;DHT22;21300;52.006;5.798;2023-04-24T12:38:25;11.80;96.10
35127;DHT22;21300;52.006;5.798;2023-04-24T12:41:05;11.80;96.10
35127;DHT22;21300;52.006;5.798;2023-04-24T12:43:31;11.80;96.00
35127;DHT22;21300;52.006;5.798;2023-04-24T12:45:57;11.80;96.10
35127;DHT22;21300;52.006;5.798;2023-04-24T12:48:22;11.90;96.00
35127;DHT22;21300;52.006;5.798;2023-04-24T12:50:48;11.90;96.00
35127;DHT22;21300;52.006;5.798;2023-04-24T12:53:14;11.90;96.10
35127;DHT22;21300;52.006;5.798;2023-04-24T12:55:41;11.90;96.00
35127;DHT22;21300;52.006;5.798;2023-04-24T12:58:06;11.90;96.00
35127;DHT22;21300;52.006;5.798;2023-04-24T13:00:32;11.90;96.00
35127;DHT22;21300;52.006;5.798;2023-04-24T13:02:58;11.90;95.70
35127;DHT22;21300;52.006;5.798;2023-04-24T13:05:24;11.90;95.90
35127;DHT22;21300;52.006;5.798;2023-04-24T13:07:50;11.90;95.90
35127;DHT22;21300;52.006;5.798;2023-04-24T13:13:00;12.00;95.90
35127;DHT22;21300;52.006;5.798;2023-04-24T13:15:25;12.00;95.80
35127;DHT22;21300;52.006;5.798;2023-04-24T13:17:51;12.00;95.90
35127;DHT22;21300;52.006;5.798;2023-04-24T13:20:17;12.00;95.90
35127;DHT22;21300;52.006;5.798;2023-04-24T13:22:43;12.00;95.90
35127;DHT22;21300;52.006;5.798;2023-04-24T13:25:08;12.00;95.70
35127;DHT22;21300;52.006;5.798;2023-04-24T13:27:35;12.00;95.90
35127;DHT22;21300;52.006;5.798;2023-04-24T13:30:01;12.00;95.90
35127;DHT22;21300;52.006;5.798;2023-04-24T13:32:26;12.00;95.70
35127;DHT22;21300;52.006;5.798;2023-04-24T13:34:54;12.00;95.60
35127;DHT22;21300;52.006;5.798;2023-04-24T13:37:19;12.00;95.80
35127;DHT22;21300;52.006;5.798;2023-04-24T13:39:45;12.00;95.80
35127;DHT22;21300;52.006;5.798;2023-04-24T13:42:10;12.00;95.80
35127;DHT22;21300;52.006;5.798;2023-04-24T13:44:36;12.00;95.70
35127;DHT22;21300;52.006;5.798;2023-04-24T13:47:02;12.00;95.80
35127;DHT22;21300;52.006;5.798;2023-04-24T13:49:28;12.00;95.80
35127;DHT22;21300;52.006;5.798;2023-04-24T13:51:55;12.00;95.80
35127;DHT22;21300;52.006;5.798;2023-04-24T13:54:21;12.00;95.60
35127;DHT22;21300;52.006;5.798;2023-04-24T13:56:48;12.00;95.70
35127;DHT22;21300;52.006;5.798;2023-04-24T13:59:14;12.00;95.70
35127;DHT22;21300;52.006;5.798;2023-04-24T14:01:40;12.10;95.70
35127;DHT22;21300;52.006;5.798;2023-04-24T14:04:05;12.00;95.60
35127;DHT22;21300;52.006;5.798;2023-04-24T14:06:31;12.10;95.60
35127;DHT22;21300;52.006;5.798;2023-04-24T14:08:57;12.00;95.60
35127;DHT22;21300;52.006;5.798;2023-04-24T14:11:22;12.00;95.40
35127;DHT22;21300;52.006;5.798;2023-04-24T14:13:48;12.10;95.60
35127;DHT22;21300;52.006;5.798;2023-04-24T14:16:14;12.10;95.60
35127;DHT22;21300;52.006;5.798;2023-04-24T14:18:40;12.00;95.60
35127;DHT22;21300;52.006;5.798;2023-04-24T14:21:06;12.00;95.50
35127;DHT22;21300;52.006;5.798;2023-04-24T14:23:32;12.10;95.60
35127;DHT22;21300;52.006;5.798;2023-04-24T14:25:58;12.10;95.50
35127;DHT22;21300;52.006;5.798;2023-04-24T14:28:25;12.10;95.50
35127;DHT22;21300;52.006;5.798;2023-04-24T14:30:52;12.10;95.60
35127;DHT22;21300;52.006;5.798;2023-04-24T14:33:18;12.10;95.60
35127;DHT22;21300;52.006;5.798;2023-04-24T14:35:43;12.10;95.50
35127;DHT22;21300;52.006;5.798;2023-04-24T14:38:09;12.10;95.50
35127;DHT22;21300;52.006;5.798;2023-04-24T14:40:35;12.10;95.40
35127;DHT22;21300;52.006;5.798;2023-04-24T14:43:01;12.10;95.40
35127;DHT22;21300;52.006;5.798;2023-04-24T14:45:27;12.10;95.50
35127;DHT22;21300;52.006;5.798;2023-04-24T14:47:54;12.10;95.50
35127;DHT22;21300;52.006;5.798;2023-04-24T14:50:20;12.00;95.70
35127;DHT22;21300;52.006;5.798;2023-04-24T14:55:30;12.10;95.20
35127;DHT22;21300;52.006;5.798;2023-04-24T14:57:57;12.10;95.20
35127;DHT22;21300;52.006;5.798;2023-04-24T15:00:22;12.10;95.30
35127;DHT22;21300;52.006;5.798;2023-04-24T15:02:51;12.10;95.20
35127;DHT22;21300;52.006;5.798;2023-04-24T15:05:17;12.10;95.10
35127;DHT22;21300;52.006;5.798;2023-04-24T15:07:42;12.20;95.00
35127;DHT22;21300;52.006;5.798;2023-04-24T15:10:08;12.10;95.10
35127;DHT22;21300;52.006;5.798;2023-04-24T15:12:34;12.10;95.00
35127;DHT22;21300;52.006;5.798;2023-04-24T15:14:59;12.20;95.10
35127;DHT22;21300;52.006;5.798;2023-04-24T15:17:26;12.20;95.10
35127;DHT22;21300;52.006;5.798;2023-04-24T15:19:51;12.10;95.00
35127;DHT22;21300;52.006;5.798;2023-04-24T15:22:17;12.20;95.20
35127;DHT22;21300;52.006;5.798;2023-04-24T15:24:42;12.20;95.10
35127;DHT22;21300;52.006;5.798;2023-04-24T15:27:09;12.20;95.00
35127;DHT22;21300;52.006;5.798;2023-04-24T15:29:35;12.20;95.10
35127;DHT22;21300;52.006;5.798;2023-04-24T15:32:01;12.20;95.00
35127;DHT22;21300;52.006;5.798;2023-04-24T15:34:27;12.20;94.90
35127;DHT22;21300;52.006;5.798;2023-04-24T15:36:52;12.20;94.90
35127;DHT22;21300;52.006;5.798;2023-04-24T15:39:22;12.20;94.90